sensor_id;sensor_type;location;lat;lon;timestamp;pressure;altitude;pressure_sealevel;temperature;humidity
22241;BME280;11289;52.524;13.694;2022-11-15T00:00:55;100928.25;;;4.35;80.84
22241;BME280;11289;52.524;13.694;2022-11-15T00:03:23;100916.44;;;4.34;81.06
22241;BME280;11289;52.524;13.694;2022-11-15T00:05:49;100910.66;;;4.31;81.20
22241;BME280;11289;52.524;13.694;2022-11-15T00:08:15;100927.94;;;4.42;81.35
22241;BME280;11289;52.524;13.694;2022-11-15T00:10:40;100920.28;;;4.39;81.65
22241;BME280;11289;52.524;13.694;2022-11-15T00:13:07;100906.28;;;4.30;81.28
22241;BME280;11289;52.524;13.694;2022-11-15T00:15:37;100923.03;;;4.39;81.53
22241;BME280;11289;52.524;13.694;2022-11-15T00:18:03;100922.47;;;4.36;81.58
22241;BME280;11289;52.524;13.694;2022-11-15T00:20:29;100900.50;;;4.26;81.34
22241;BME280;11289;52.524;13.694;2022-11-15T00:22:55;100890.38;;;4.16;81.61
22241;BME280;11289;52.524;13.694;2022-11-15T00:25:20;100892.56;;;4.19;81.26
22241;BME280;11289;52.524;13.694;2022-11-15T00:27:45;100914.78;;;4.33;81.32
22241;BME280;11289;52.524;13.694;2022-11-15T00:30:11;100875.56;;;4.12;81.30
22241;BME280;11289;52.524;13.694;2022-11-15T00:32:37;100911.50;;;4.31;81.47
22241;BME280;11289;52.524;13.694;2022-11-15T00:35:03;100874.50;;;4.08;81.04
22241;BME280;11289;52.524;13.694;2022-11-15T00:37:28;100906.81;;;4.27;81.51
22241;BME280;11289;52.524;13.694;2022-11-15T00:39:54;100912.31;;;4.32;81.41
22241;BME280;11289;52.524;13.694;2022-11-15T00:42:19;100880.28;;;4.07;81.28
22241;BME280;11289;52.524;13.694;2022-11-15T00:44:44;100865.69;;;4.06;81.09
22241;BME280;11289;52.524;13.694;2022-11-15T00:47:10;100877.25;;;4.08;81.46
22241;BME280;11289;52.524;13.694;2022-11-15T00:49:35;100910.97;;;4.24;81.71
22241;BME280;11289;52.524;13.694;2022-11-15T00:52:00;100866.78;;;4.05;81.28
22241;BME280;11289;52.524;13.694;2022-11-15T00:54:26;100892.28;;;4.21;81.84
22241;BME280;11289;52.524;13.694;2022-11-15T00:56:51;100897.53;;;4.17;81.30
22241;BME280;11289;52.524;13.694;2022-11-15T00:59:17;100861.09;;;3.91;82.33
22241;BME280;11289;52.524;13.694;2022-11-15T01:01:42;100863.25;;;3.94;82.76
22241;BME280;11289;52.524;13.694;2022-11-15T01:04:07;100836.94;;;3.83;82.41
22241;BME280;11289;52.524;13.694;2022-11-15T01:06:33;100866.81;;;4.00;83.36
22241;BME280;11289;52.524;13.694;2022-11-15T01:08:58;100869.53;;;4.05;82.36
22241;BME280;11289;52.524;13.694;2022-11-15T01:11:23;100873.69;;;4.03;82.17
22241;BME280;11289;52.524;13.694;2022-11-15T01:13:49;100874.22;;;4.05;82.15
22241;BME280;11289;52.524;13.694;2022-11-15T01:16:16;100859.13;;;3.97;82.49
22241;BME280;11289;52.524;13.694;2022-11-15T01:18:43;100864.34;;;3.98;82.50
22241;BME280;11289;52.524;13.694;2022-11-15T01:21:10;100868.19;;;3.97;82.37
22241;BME280;11289;52.524;13.694;2022-11-15T01:23:36;100875.34;;;3.98;82.06
22241;BME280;11289;52.524;13.694;2022-11-15T01:26:04;100841.03;;;3.80;82.26
22241;BME280;11289;52.524;13.694;2022-11-15T01:28:35;100868.47;;;4.01;82.17
22241;BME280;11289;52.524;13.694;2022-11-15T01:31:03;100851.47;;;3.94;82.31
22241;BME280;11289;52.524;13.694;2022-11-15T01:33:29;100855.56;;;3.96;82.07
22241;BME280;11289;52.524;13.694;2022-11-15T01:35:55;100856.91;;;3.99;82.58
22241;BME280;11289;52.524;13.694;2022-11-15T01:38:21;100847.91;;;3.88;82.35
22241;BME280;11289;52.524;13.694;2022-11-15T01:40:46;100838.03;;;3.82;82.10
22241;BME280;11289;52.524;13.694;2022-11-15T01:43:33;100838.53;;;3.89;82.05
22241;BME280;11289;52.524;13.694;2022-11-15T01:46:34;100844.59;;;3.91;81.98
22241;BME280;11289;52.524;13.694;2022-11-15T01:48:53;100845.16;;;3.83;82.50
22241;BME280;11289;52.524;13.694;2022-11-15T01:51:24;100831.75;;;3.76;82.29
22241;BME280;11289;52.524;13.694;2022-11-15T01:53:54;100828.44;;;3.74;82.88
22241;BME280;11289;52.524;13.694;2022-11-15T01:56:23;100828.16;;;3.81;82.87
22241;BME280;11289;52.524;13.694;2022-11-15T01:58:51;100821.56;;;3.77;82.88
22241;BME280;11289;52.524;13.694;2022-11-15T02:01:17;100798.81;;;3.61;82.76
22241;BME280;11289;52.524;13.694;2022-11-15T02:03:48;100822.94;;;3.79;83.42
22241;BME280;11289;52.524;13.694;2022-11-15T02:06:15;100810.34;;;3.68;83.32
22241;BME280;11289;52.524;13.694;2022-11-15T02:08:42;100831.47;;;3.78;83.04
22241;BME280;11289;52.524;13.694;2022-11-15T02:11:08;100808.97;;;3.65;83.71
22241;BME280;11289;52.524;13.694;2022-11-15T02:13:34;100816.63;;;3.74;83.80
22241;BME280;11289;52.524;13.694;2022-11-15T02:24:41;100810.34;;;3.68;84.06
22241;BME280;11289;52.524;13.694;2022-11-15T02:27:22;100811.72;;;3.65;84.19
22241;BME280;11289;52.524;13.694;2022-11-15T02:36:00;100800.47;;;3.62;84.31
22241;BME280;11289;52.524;13.694;2022-11-15T02:39:07;100778.56;;;3.52;84.15
22241;BME280;11289;52.524;13.694;2022-11-15T02:41:53;100794.72;;;3.58;83.53
22241;BME280;11289;52.524;13.694;2022-11-15T02:44:28;100800.75;;;3.60;83.61
22241;BME280;11289;52.524;13.694;2022-11-15T02:47:05;100796.94;;;3.56;83.97
22241;BME280;11289;52.524;13.694;2022-11-15T02:50:07;100795.81;;;3.62;83.61
22241;BME280;11289;52.524;13.694;2022-11-15T02:52:34;100793.09;;;3.57;83.33
22241;BME280;11289;52.524;13.694;2022-11-15T02:55:00;100784.03;;;3.52;83.82
22241;BME280;11289;52.524;13.694;2022-11-15T03:00:08;100798.59;;;3.57;84.53
22241;BME280;11289;52.524;13.694;2022-11-15T03:05:37;100787.59;;;3.52;84.28
22241;BME280;11289;52.524;13.694;2022-11-15T03:08:22;100792.53;;;3.55;84.55
22241;BME280;11289;52.524;13.694;2022-11-15T03:11:11;100787.59;;;3.52;84.12
22241;BME280;11289;52.524;13.694;2022-11-15T03:13:49;100786.78;;;3.52;84.32
22241;BME280;11289;52.524;13.694;2022-11-15T03:16:41;100792.53;;;3.55;84.19
22241;BME280;11289;52.524;13.694;2022-11-15T03:21:52;100779.91;;;3.49;84.04
22241;BME280;11289;52.524;13.694;2022-11-15T03:24:20;100770.88;;;3.43;83.58
22241;BME280;11289;52.524;13.694;2022-11-15T03:26:49;100778.03;;;3.44;84.06
22241;BME280;11289;52.524;13.694;2022-11-15T03:29:23;100780.47;;;3.46;84.80
22241;BME280;11289;52.524;13.694;2022-11-15T03:31:54;100754.72;;;3.26;84.98
22241;BME280;11289;52.524;13.694;2022-11-15T03:34:52;100784.88;;;3.42;84.56
22241;BME280;11289;52.524;13.694;2022-11-15T03:37:22;100773.34;;;3.40;84.75
22241;BME280;11289;52.524;13.694;2022-11-15T03:39:55;100784.88;;;3.42;84.59
22241;BME280;11289;52.524;13.694;2022-11-15T03:42:27;100777.19;;;3.44;84.03
22241;BME280;11289;52.524;13.694;2022-11-15T03:45:02;100773.34;;;3.45;83.35
22241;BME280;11289;52.524;13.694;2022-11-15T03:50:11;100771.69;;;3.44;83.08
22241;BME280;11289;52.524;13.694;2022-11-15T03:52:39;100765.38;;;3.43;83.60
22241;BME280;11289;52.524;13.694;2022-11-15T03:55:08;100771.16;;;3.42;83.12
22241;BME280;11289;52.524;13.694;2022-11-15T03:57:39;100762.97;;;3.31;83.09
22241;BME280;11289;52.524;13.694;2022-11-15T04:00:06;100762.13;;;3.31;83.29
22241;BME280;11289;52.524;13.694;2022-11-15T04:02:31;100760.50;;;3.30;83.14
22241;BME280;11289;52.524;13.694;2022-11-15T04:04:57;100775.84;;;3.36;82.81
22241;BME280;11289;52.524;13.694;2022-11-15T04:07:22;100764.59;;;3.27;82.82
22241;BME280;11289;52.524;13.694;2022-11-15T04:09:48;100760.78;;;3.28;83.07
22241;BME280;11289;52.524;13.694;2022-11-15T04:12:47;100773.66;;;3.33;83.05
22241;BME280;11289;52.524;13.694;2022-11-15T04:15:18;100767.34;;;3.22;82.91
22241;BME280;11289;52.524;13.694;2022-11-15T04:17:52;100757.50;;;3.21;83.09
22241;BME280;11289;52.524;13.694;2022-11-15T04:20:32;100759.69;;;3.24;82.92
22241;BME280;11289;52.524;13.694;2022-11-15T04:23:18;100762.66;;;3.28;82.89
22241;BME280;11289;52.524;13.694;2022-11-15T04:26:04;100753.66;;;3.17;82.56
22241;BME280;11289;52.524;13.694;2022-11-15T04:28:30;100754.75;;;3.21;82.81
22241;BME280;11289;52.524;13.694;2022-11-15T04:30:56;100753.09;;;3.20;82.89
22241;BME280;11289;52.524;13.694;2022-11-15T04:33:21;100753.38;;;3.19;83.62
22241;BME280;11289;52.524;13.694;2022-11-15T04:35:47;100753.34;;;3.24;83.55
22241;BME280;11289;52.524;13.694;2022-11-15T04:38:33;100752.25;;;3.25;83.45
22241;BME280;11289;52.524;13.694;2022-11-15T04:40:58;100741.31;;;3.20;83.89
22241;BME280;11289;52.524;13.694;2022-11-15T04:43:23;100735.81;;;3.20;83.96
22241;BME280;11289;52.524;13.694;2022-11-15T04:45:49;100729.81;;;3.12;83.31
22241;BME280;11289;52.524;13.694;2022-11-15T04:48:14;100748.69;;;3.24;83.57
22241;BME280;11289;52.524;13.694;2022-11-15T04:50:40;100739.94;;;3.17;83.69
22241;BME280;11289;52.524;13.694;2022-11-15T04:53:05;100693.06;;;2.93;83.45
22241;BME280;11289;52.524;13.694;2022-11-15T04:55:31;100713.63;;;3.06;83.35
22241;BME280;11289;52.524;13.694;2022-11-15T04:57:58;100745.94;;;3.24;83.29
22241;BME280;11289;52.524;13.694;2022-11-15T05:00:24;100744.88;;;3.20;83.13
22241;BME280;11289;52.524;13.694;2022-11-15T05:02:49;100732.53;;;3.12;83.15
22241;BME280;11289;52.524;13.694;2022-11-15T05:05:33;100744.84;;;3.15;83.14
22241;BME280;11289;52.524;13.694;2022-11-15T05:07:58;100733.34;;;3.13;83.20
22241;BME280;11289;52.524;13.694;2022-11-15T05:10:24;100733.34;;;3.08;83.64
22241;BME280;11289;52.524;13.694;2022-11-15T05:12:49;100732.53;;;3.12;83.76
22241;BME280;11289;52.524;13.694;2022-11-15T05:15:14;100722.13;;;3.09;83.40
22241;BME280;11289;52.524;13.694;2022-11-15T05:17:42;100731.41;;;3.13;83.55
22241;BME280;11289;52.524;13.694;2022-11-15T05:20:08;100733.06;;;3.14;83.94
22241;BME280;11289;52.524;13.694;2022-11-15T05:22:33;100737.75;;;3.14;83.88
22241;BME280;11289;52.524;13.694;2022-11-15T05:24:59;100732.81;;;3.11;83.60
22241;BME280;11289;52.524;13.694;2022-11-15T05:27:24;100723.50;;;3.07;84.03
22241;BME280;11289;52.524;13.694;2022-11-15T05:29:49;100729.25;;;3.10;83.70
22241;BME280;11289;52.524;13.694;2022-11-15T05:32:16;100721.03;;;3.05;83.91
22241;BME280;11289;52.524;13.694;2022-11-15T05:34:41;100727.88;;;3.08;83.65
22241;BME280;11289;52.524;13.694;2022-11-15T05:37:07;100729.81;;;3.12;83.98
22241;BME280;11289;52.524;13.694;2022-11-15T05:39:32;100727.88;;;3.08;84.04
22241;BME280;11289;52.524;13.694;2022-11-15T05:42:12;100736.66;;;3.10;83.88
22241;BME280;11289;52.524;13.694;2022-11-15T05:44:41;100734.47;;;3.07;83.49
22241;BME280;11289;52.524;13.694;2022-11-15T05:47:10;100736.38;;;3.06;83.32
22241;BME280;11289;52.524;13.694;2022-11-15T05:49:38;100735.84;;;3.04;83.04
22241;BME280;11289;52.524;13.694;2022-11-15T05:52:07;100745.16;;;3.08;83.35
22241;BME280;11289;52.524;13.694;2022-11-15T05:54:35;100738.31;;;3.06;82.77
22241;BME280;11289;52.524;13.694;2022-11-15T05:57:01;100735.03;;;3.04;82.90
22241;BME280;11289;52.524;13.694;2022-11-15T05:59:29;100732.28;;;2.99;82.87
22241;BME280;11289;52.524;13.694;2022-11-15T06:01:55;100746.28;;;3.02;83.13
22241;BME280;11289;52.524;13.694;2022-11-15T06:04:21;100741.06;;;3.01;82.63
22241;BME280;11289;52.524;13.694;2022-11-15T06:06:46;100752.03;;;3.06;83.08
22241;BME280;11289;52.524;13.694;2022-11-15T06:09:11;100752.03;;;3.01;83.08
22241;BME280;11289;52.524;13.694;2022-11-15T06:11:37;100761.09;;;3.01;82.73
22241;BME280;11289;52.524;13.694;2022-11-15T06:14:02;100751.22;;;2.95;82.76
22241;BME280;11289;52.524;13.694;2022-11-15T06:16:27;100751.47;;;2.99;82.88
22241;BME280;11289;52.524;13.694;2022-11-15T06:18:53;100763.53;;;2.97;82.70
22241;BME280;11289;52.524;13.694;2022-11-15T06:21:18;100745.47;;;2.91;83.05
22241;BME280;11289;52.524;13.694;2022-11-15T06:23:44;100748.19;;;2.91;83.02
22241;BME280;11289;52.524;13.694;2022-11-15T06:26:09;100753.13;;;2.94;83.25
22241;BME280;11289;52.524;13.694;2022-11-15T06:28:34;100754.78;;;2.95;83.09
22241;BME280;11289;52.524;13.694;2022-11-15T06:31:07;100766.84;;;3.00;83.20
22241;BME280;11289;52.524;13.694;2022-11-15T06:33:33;100758.06;;;2.97;83.25
22241;BME280;11289;52.524;13.694;2022-11-15T06:36:03;100758.63;;;3.00;83.78
22241;BME280;11289;52.524;13.694;2022-11-15T06:38:28;100756.97;;;2.99;83.84
22241;BME280;11289;52.524;13.694;2022-11-15T06:40:54;100742.72;;;2.91;83.47
22241;BME280;11289;52.524;13.694;2022-11-15T06:43:19;100762.19;;;3.00;83.74
22241;BME280;11289;52.524;13.694;2022-11-15T06:45:45;100754.78;;;2.95;83.68
22241;BME280;11289;52.524;13.694;2022-11-15T06:48:10;100756.97;;;2.99;83.54
22241;BME280;11289;52.524;13.694;2022-11-15T06:50:35;100753.69;;;2.91;83.47
22241;BME280;11289;52.524;13.694;2022-11-15T06:53:03;100746.28;;;2.97;83.75
22241;BME280;11289;52.524;13.694;2022-11-15T06:55:28;100756.97;;;3.04;83.58
22241;BME280;11289;52.524;13.694;2022-11-15T06:57:54;100744.34;;;2.97;83.76
22241;BME280;11289;52.524;13.694;2022-11-15T07:00:20;100758.06;;;3.13;84.07
22241;BME280;11289;52.524;13.694;2022-11-15T07:02:47;100765.47;;;3.12;83.81
22241;BME280;11289;52.524;13.694;2022-11-15T07:05:13;100765.72;;;3.16;83.83
22241;BME280;11289;52.524;13.694;2022-11-15T07:07:39;100763.53;;;3.13;83.99
22241;BME280;11289;52.524;13.694;2022-11-15T07:10:06;100756.97;;;3.14;84.13
22241;BME280;11289;52.524;13.694;2022-11-15T07:12:32;100765.44;;;3.18;83.79
22241;BME280;11289;52.524;13.694;2022-11-15T07:14:57;100752.84;;;3.11;84.23
22241;BME280;11289;52.524;13.694;2022-11-15T07:17:22;100756.09;;;3.24;84.35
22241;BME280;11289;52.524;13.694;2022-11-15T07:19:48;100776.13;;;3.29;84.55
22241;BME280;11289;52.524;13.694;2022-11-15T07:22:13;100764.31;;;3.29;84.32
22241;BME280;11289;52.524;13.694;2022-11-15T07:24:39;100772.28;;;3.30;84.41
22241;BME280;11289;52.524;13.694;2022-11-15T07:27:04;100764.59;;;3.27;84.68
22241;BME280;11289;52.524;13.694;2022-11-15T07:29:29;100773.09;;;3.36;84.60
22241;BME280;11289;52.524;13.694;2022-11-15T07:31:55;100768.97;;;3.39;84.88
22241;BME280;11289;52.524;13.694;2022-11-15T07:34:20;100786.50;;;3.48;85.04
22241;BME280;11289;52.524;13.694;2022-11-15T07:36:46;100785.94;;;3.51;85.24
22241;BME280;11289;52.524;13.694;2022-11-15T07:39:11;100778.00;;;3.49;85.46
22241;BME280;11289;52.524;13.694;2022-11-15T07:41:37;100787.56;;;3.62;85.74
22241;BME280;11289;52.524;13.694;2022-11-15T07:44:04;100754.66;;;3.47;85.70
22241;BME280;11289;52.524;13.694;2022-11-15T07:46:29;100786.44;;;3.69;86.07
22241;BME280;11289;52.524;13.694;2022-11-15T07:48:55;100787.81;;;3.71;86.10
22241;BME280;11289;52.524;13.694;2022-11-15T07:51:21;100781.19;;;3.77;86.25
22241;BME280;11289;52.524;13.694;2022-11-15T07:53:46;100767.16;;;3.79;86.54
22241;BME280;11289;52.524;13.694;2022-11-15T07:56:12;100779.75;;;3.95;86.78
22241;BME280;11289;52.524;13.694;2022-11-15T07:58:37;100779.72;;;4.00;86.97
22241;BME280;11289;52.524;13.694;2022-11-15T08:01:07;100779.41;;;4.07;87.22
22241;BME280;11289;52.524;13.694;2022-11-15T08:03:33;100777.47;;;4.13;87.00
22241;BME280;11289;52.524;13.694;2022-11-15T08:05:58;100776.06;;;4.15;87.46
22241;BME280;11289;52.524;13.694;2022-11-15T08:08:24;100767.50;;;4.22;87.47
22241;BME280;11289;52.524;13.694;2022-11-15T08:10:49;100757.56;;;4.31;88.15
22241;BME280;11289;52.524;13.694;2022-11-15T08:13:15;100766.03;;;4.35;88.72
22241;BME280;11289;52.524;13.694;2022-11-15T08:15:40;100750.56;;;4.44;88.65
22241;BME280;11289;52.524;13.694;2022-11-15T08:18:10;100763.41;;;4.59;90.08
22241;BME280;11289;52.524;13.694;2022-11-15T08:20:36;100761.34;;;4.75;90.48
22241;BME280;11289;52.524;13.694;2022-11-15T08:23:03;100765.09;;;4.90;90.50
22241;BME280;11289;52.524;13.694;2022-11-15T08:25:30;100761.09;;;5.01;90.98
22241;BME280;11289;52.524;13.694;2022-11-15T08:27:58;100769.75;;;5.18;91.21
22241;BME280;11289;52.524;13.694;2022-11-15T08:30:24;100761.34;;;5.34;90.91
22241;BME280;11289;52.524;13.694;2022-11-15T08:32:51;100750.88;;;5.36;90.58
22241;BME280;11289;52.524;13.694;2022-11-15T08:35:18;100758.06;;;5.56;90.47
22241;BME280;11289;52.524;13.694;2022-11-15T08:37:43;100757.38;;;5.69;90.64
22241;BME280;11289;52.524;13.694;2022-11-15T08:40:09;100756.50;;;5.93;91.17
22241;BME280;11289;52.524;13.694;2022-11-15T08:42:35;100754.44;;;6.04;90.97
22241;BME280;11289;52.524;13.694;2022-11-15T08:45:00;100753.94;;;6.21;90.50
22241;BME280;11289;52.524;13.694;2022-11-15T08:47:26;100760.72;;;6.28;89.71
22241;BME280;11289;52.524;13.694;2022-11-15T08:49:51;100743.72;;;6.40;90.60
22241;BME280;11289;52.524;13.694;2022-11-15T08:52:17;100749.75;;;6.61;89.77
22241;BME280;11289;52.524;13.694;2022-11-15T08:54:42;100739.56;;;6.76;90.29
22241;BME280;11289;52.524;13.694;2022-11-15T08:57:08;100750.78;;;6.99;89.79
22241;BME280;11289;52.524;13.694;2022-11-15T08:59:35;100748.25;;;7.16;90.12
22241;BME280;11289;52.524;13.694;2022-11-15T09:02:00;100748.06;;;7.40;89.28
22241;BME280;11289;52.524;13.694;2022-11-15T09:04:25;100739.56;;;7.50;87.42
22241;BME280;11289;52.524;13.694;2022-11-15T09:06:51;100747.75;;;7.70;87.53
22241;BME280;11289;52.524;13.694;2022-11-15T09:09:16;100750.91;;;7.91;87.89
22241;BME280;11289;52.524;13.694;2022-11-15T09:11:43;100743.91;;;8.07;87.05
22241;BME280;11289;52.524;13.694;2022-11-15T09:14:11;100749.59;;;8.25;86.24
22241;BME280;11289;52.524;13.694;2022-11-15T09:16:37;100758.38;;;8.41;86.20
22241;BME280;11289;52.524;13.694;2022-11-15T09:19:02;100746.28;;;8.50;84.74
22241;BME280;11289;52.524;13.694;2022-11-15T09:21:28;100748.03;;;8.69;84.71
22241;BME280;11289;52.524;13.694;2022-11-15T09:23:54;100753.22;;;8.84;83.72
22241;BME280;11289;52.524;13.694;2022-11-15T09:26:19;100763.06;;;8.99;82.71
22241;BME280;11289;52.524;13.694;2022-11-15T09:28:45;100743.47;;;8.96;83.08
22241;BME280;11289;52.524;13.694;2022-11-15T09:31:10;100748.34;;;9.21;82.73
22241;BME280;11289;52.524;13.694;2022-11-15T09:33:36;100756.63;;;9.44;82.45
22241;BME280;11289;52.524;13.694;2022-11-15T09:36:09;100758.78;;;9.56;81.84
22241;BME280;11289;52.524;13.694;2022-11-15T09:38:35;100760.25;;;9.62;79.82
22241;BME280;11289;52.524;13.694;2022-11-15T09:41:25;100761.97;;;9.89;80.75
22241;BME280;11289;52.524;13.694;2022-11-15T09:44:09;100756.47;;;10.07;80.30
22241;BME280;11289;52.524;13.694;2022-11-15T09:49:32;100762.09;;;10.42;78.77
22241;BME280;11289;52.524;13.694;2022-11-15T09:51:58;100743.78;;;10.50;77.22
22241;BME280;11289;52.524;13.694;2022-11-15T09:57:15;100758.97;;;10.70;76.95
22241;BME280;11289;52.524;13.694;2022-11-15T09:59:54;100753.56;;;10.82;75.98
22241;BME280;11289;52.524;13.694;2022-11-15T10:05:23;100745.63;;;11.19;77.17
22241;BME280;11289;52.524;13.694;2022-11-15T10:08:26;100745.06;;;11.43;75.22
22241;BME280;11289;52.524;13.694;2022-11-15T10:10:59;100739.50;;;11.43;72.28
22241;BME280;11289;52.524;13.694;2022-11-15T10:13:28;100743.22;;;11.56;75.58
22241;BME280;11289;52.524;13.694;2022-11-15T10:16:16;100738.44;;;11.57;73.31
22241;BME280;11289;52.524;13.694;2022-11-15T10:19:47;100728.38;;;11.73;74.49
22241;BME280;11289;52.524;13.694;2022-11-15T10:24:39;100714.03;;;12.01;72.90
22241;BME280;11289;52.524;13.694;2022-11-15T10:27:13;100717.19;;;12.12;71.74
22241;BME280;11289;52.524;13.694;2022-11-15T10:29:42;100717.75;;;12.26;71.48
22241;BME280;11289;52.524;13.694;2022-11-15T10:32:10;100694.69;;;12.26;71.61
22241;BME280;11289;52.524;13.694;2022-11-15T10:34:36;100693.44;;;12.35;69.65
22241;BME280;11289;52.524;13.694;2022-11-15T10:37:02;100695.59;;;12.51;71.32
22241;BME280;11289;52.524;13.694;2022-11-15T10:39:27;100699.50;;;12.71;71.71
22241;BME280;11289;52.524;13.694;2022-11-15T10:41:53;100681.75;;;12.76;69.94
22241;BME280;11289;52.524;13.694;2022-11-15T10:44:29;100690.16;;;13.00;69.93
22241;BME280;11289;52.524;13.694;2022-11-15T10:49:22;100681.91;;;13.04;68.14
22241;BME280;11289;52.524;13.694;2022-11-15T10:52:15;100680.78;;;13.17;67.83
22241;BME280;11289;52.524;13.694;2022-11-15T10:57:14;100675.56;;;13.28;67.51
22241;BME280;11289;52.524;13.694;2022-11-15T10:59:48;100666.31;;;13.36;66.34
22241;BME280;11289;52.524;13.694;2022-11-15T11:02:39;100662.56;;;13.45;64.82
22241;BME280;11289;52.524;13.694;2022-11-15T11:05:27;100664.34;;;13.49;65.11
22241;BME280;11289;52.524;13.694;2022-11-15T11:07:58;100659.09;;;13.48;62.94
22241;BME280;11289;52.524;13.694;2022-11-15T11:10:24;100652.47;;;13.52;64.78
22241;BME280;11289;52.524;13.694;2022-11-15T11:12:50;100645.94;;;13.61;65.63
22241;BME280;11289;52.524;13.694;2022-11-15T11:15:16;100636.06;;;13.63;63.92
22241;BME280;11289;52.524;13.694;2022-11-15T11:17:55;100641.72;;;13.79;63.87
22241;BME280;11289;52.524;13.694;2022-11-15T11:29:12;100618.47;;;13.75;63.96
22241;BME280;11289;52.524;13.694;2022-11-15T11:37:43;100621.22;;;13.47;64.17
22241;BME280;11289;52.524;13.694;2022-11-15T11:40:30;100622.72;;;13.32;64.64
22241;BME280;11289;52.524;13.694;2022-11-15T11:48:40;100611.19;;;12.96;65.95
22241;BME280;11289;52.524;13.694;2022-11-15T11:51:32;100623.25;;;12.88;65.48
22241;BME280;11289;52.524;13.694;2022-11-15T11:54:12;100605.94;;;12.70;66.10
22241;BME280;11289;52.524;13.694;2022-11-15T11:56:40;100620.91;;;12.65;66.59
22241;BME280;11289;52.524;13.694;2022-11-15T12:01:57;100606.69;;;12.46;67.36
22241;BME280;11289;52.524;13.694;2022-11-15T12:04:36;100611.19;;;12.38;67.95
22241;BME280;11289;52.524;13.694;2022-11-15T12:07:17;100612.56;;;12.32;68.36
22241;BME280;11289;52.524;13.694;2022-11-15T12:15:26;100608.66;;;12.12;69.25
22241;BME280;11289;52.524;13.694;2022-11-15T12:17:55;100605.75;;;12.08;69.87
22241;BME280;11289;52.524;13.694;2022-11-15T12:20:27;100601.22;;;12.04;70.23
22241;BME280;11289;52.524;13.694;2022-11-15T12:23:05;100598.75;;;12.02;69.93
22241;BME280;11289;52.524;13.694;2022-11-15T12:25:41;100588.53;;;11.94;70.28
22241;BME280;11289;52.524;13.694;2022-11-15T12:28:17;100591.00;;;11.95;70.98
22241;BME280;11289;52.524;13.694;2022-11-15T12:30:50;100578.38;;;11.89;70.79
22241;BME280;11289;52.524;13.694;2022-11-15T12:33:41;100586.72;;;11.89;70.53
22241;BME280;11289;52.524;13.694;2022-11-15T12:36:27;100571.63;;;11.78;70.64
22241;BME280;11289;52.524;13.694;2022-11-15T12:41:31;100572.09;;;11.80;70.84
22241;BME280;11289;52.524;13.694;2022-11-15T12:43:57;100573.91;;;11.76;70.91
22241;BME280;11289;52.524;13.694;2022-11-15T12:49:09;100576.25;;;11.74;71.01
22241;BME280;11289;52.524;13.694;2022-11-15T12:52:04;100574.16;;;11.71;70.89
22241;BME280;11289;52.524;13.694;2022-11-15T12:54:50;100576.44;;;11.68;71.00
22241;BME280;11289;52.524;13.694;2022-11-15T13:02:30;100559.13;;;11.63;71.10
22241;BME280;11289;52.524;13.694;2022-11-15T13:08:00;100542.34;;;11.59;72.10
22241;BME280;11289;52.524;13.694;2022-11-15T13:17:47;100544.63;;;11.57;72.43
22241;BME280;11289;52.524;13.694;2022-11-15T13:22:48;100535.00;;;11.55;72.33
22241;BME280;11289;52.524;13.694;2022-11-15T13:33:16;100535.28;;;11.41;73.01
22241;BME280;11289;52.524;13.694;2022-11-15T13:35:46;100538.06;;;11.41;73.30
22241;BME280;11289;52.524;13.694;2022-11-15T13:40:52;100539.19;;;11.40;73.49
22241;BME280;11289;52.524;13.694;2022-11-15T13:43:27;100544.06;;;11.43;73.32
22241;BME280;11289;52.524;13.694;2022-11-15T13:46:12;100541.63;;;11.41;73.58
22241;BME280;11289;52.524;13.694;2022-11-15T13:48:40;100531.06;;;11.35;73.73
22241;BME280;11289;52.524;13.694;2022-11-15T13:51:17;100533.34;;;11.32;73.99
22241;BME280;11289;52.524;13.694;2022-11-15T13:53:52;100520.81;;;11.26;74.10
22241;BME280;11289;52.524;13.694;2022-11-15T13:56:19;100532.91;;;11.30;74.31
22241;BME280;11289;52.524;13.694;2022-11-15T13:58:45;100517.56;;;11.24;74.39
22241;BME280;11289;52.524;13.694;2022-11-15T14:01:19;100529.03;;;11.23;74.47
22241;BME280;11289;52.524;13.694;2022-11-15T14:03:52;100524.97;;;11.20;74.76
22241;BME280;11289;52.524;13.694;2022-11-15T14:06:20;100525.41;;;11.22;74.76
22241;BME280;11289;52.524;13.694;2022-11-15T14:11:37;100525.28;;;11.19;74.85
22241;BME280;11289;52.524;13.694;2022-11-15T14:14:12;100525.97;;;11.15;75.04
22241;BME280;11289;52.524;13.694;2022-11-15T14:16:43;100523.53;;;11.14;74.98
22241;BME280;11289;52.524;13.694;2022-11-15T14:19:12;100523.53;;;11.14;75.49
22241;BME280;11289;52.524;13.694;2022-11-15T14:22:07;100524.38;;;11.06;75.40
22241;BME280;11289;52.524;13.694;2022-11-15T14:24:33;100525.75;;;11.00;75.72
22241;BME280;11289;52.524;13.694;2022-11-15T14:29:43;100513.09;;;10.81;75.58
22241;BME280;11289;52.524;13.694;2022-11-15T14:34:45;100524.63;;;10.92;76.21
22241;BME280;11289;52.524;13.694;2022-11-15T14:37:23;100525.47;;;10.92;76.43
22241;BME280;11289;52.524;13.694;2022-11-15T14:39:49;100518.25;;;10.91;76.32
22241;BME280;11289;52.524;13.694;2022-11-15T14:42:15;100503.75;;;10.86;76.15
22241;BME280;11289;52.524;13.694;2022-11-15T14:44:57;100499.97;;;10.90;76.52
22241;BME280;11289;52.524;13.694;2022-11-15T14:47:23;100506.69;;;10.89;76.39
22241;BME280;11289;52.524;13.694;2022-11-15T14:49:49;100507.97;;;10.92;75.97
22241;BME280;11289;52.524;13.694;2022-11-15T14:52:27;100516.78;;;10.94;76.17
22241;BME280;11289;52.524;13.694;2022-11-15T14:54:54;100525.13;;;10.94;75.96